地図

経路データ

SID SEASON NUMBER BASIN SUBBASIN NAME ISO_TIME NATURE LAT LON WMO_WIND WMO_PRES WMO_AGENCY TRACK_TYPE DIST2LAND LANDFALL IFLAG USA_AGENCY USA_ATCF_ID USA_LAT USA_LON USA_RECORD USA_STATUS USA_WIND USA_PRES USA_SSHS USA_R34_NE USA_R34_SE USA_R34_SW USA_R34_NW USA_R50_NE USA_R50_SE USA_R50_SW USA_R50_NW USA_R64_NE USA_R64_SE USA_R64_SW USA_R64_NW USA_POCI USA_ROCI USA_RMW USA_EYE TOKYO_LAT TOKYO_LON TOKYO_GRADE TOKYO_WIND TOKYO_PRES TOKYO_R50_DIR TOKYO_R50_LONG TOKYO_R50_SHORT TOKYO_R30_DIR TOKYO_R30_LONG TOKYO_R30_SHORT TOKYO_LAND CMA_LAT CMA_LON CMA_CAT CMA_WIND CMA_PRES HKO_LAT HKO_LON HKO_CAT HKO_WIND HKO_PRES NEWDELHI_LAT NEWDELHI_LON NEWDELHI_GRADE NEWDELHI_WIND NEWDELHI_PRES NEWDELHI_CI NEWDELHI_DP NEWDELHI_POCI REUNION_LAT REUNION_LON REUNION_TYPE REUNION_WIND REUNION_PRES REUNION_TNUM REUNION_CI REUNION_RMW REUNION_R34_NE REUNION_R34_SE REUNION_R34_SW REUNION_R34_NW REUNION_R50_NE REUNION_R50_SE REUNION_R50_SW REUNION_R50_NW REUNION_R64_NE REUNION_R64_SE REUNION_R64_SW REUNION_R64_NW BOM_LAT BOM_LON BOM_TYPE BOM_WIND BOM_PRES BOM_TNUM BOM_CI BOM_RMW BOM_R34_NE BOM_R34_SE BOM_R34_SW BOM_R34_NW BOM_R50_NE BOM_R50_SE BOM_R50_SW BOM_R50_NW BOM_R64_NE BOM_R64_SE BOM_R64_SW BOM_R64_NW BOM_ROCI BOM_POCI BOM_EYE BOM_POS_METHOD BOM_PRES_METHOD NADI_LAT NADI_LON NADI_CAT NADI_WIND NADI_PRES WELLINGTON_LAT WELLINGTON_LON WELLINGTON_WIND WELLINGTON_PRES DS824_LAT DS824_LON DS824_STAGE DS824_WIND DS824_PRES TD9636_LAT TD9636_LON TD9636_STAGE TD9636_WIND TD9636_PRES TD9635_LAT TD9635_LON TD9635_WIND TD9635_PRES TD9635_ROCI NEUMANN_LAT NEUMANN_LON NEUMANN_CLASS NEUMANN_WIND NEUMANN_PRES MLC_LAT MLC_LON MLC_CLASS MLC_WIND MLC_PRES USA_GUST BOM_GUST BOM_GUST_PER REUNION_GUST REUNION_GUST_PER USA_SEAHGT USA_SEARAD_NE USA_SEARAD_SE USA_SEARAD_SW USA_SEARAD_NW STORM_SPEED STORM_DIR
1983208N11265 1983 38 EP MM HENRIETTE 1983-07-27 00:00:00 TS 11.2000 -95.0000 30 hurdat_epa main 478 478 O_________O___ hurdat_epa EP081983 11.2000 -95.0000 TD 30 -1 11.2000 -95.0000 1 30 10 276
1983208N11265 1983 38 EP MM HENRIETTE 1983-07-27 03:00:00 TS 11.2478 -95.5007 main 506 485 P_________P___ EP081983 11.2427 -95.5025 TD 30 -1 11.2631 -95.4952 1 30 10 276
1983208N11265 1983 38 EP MM HENRIETTE 1983-07-27 06:00:00 TS 11.3077 -95.9981 30 hurdat_epa main 485 470 O_________P___ hurdat_epa EP081983 11.3000 -96.0000 TD 30 -1 11.3306 -95.9925 1 30 10 278
1983208N11265 1983 38 EP MM HENRIETTE 1983-07-27 09:00:00 TS 11.3906 -96.4928 main 470 459 P_________P___ EP081983 11.3849 -96.4926 TD 30 -1 11.4079 -96.4934 1 30 10 281
1983208N11265 1983 38 EP MM HENRIETTE 1983-07-27 12:00:00 TS 11.5000 -97.0000 30 hurdat_epa main 461 452 O_________O___ hurdat_epa EP081983 11.5000 -97.0000 TD 30 -1 11.5000 -97.0000 1 30 11 284
1983208N11265 1983 38 EP MM HENRIETTE 1983-07-27 15:00:00 TS 11.6401 -97.5409 main 458 449 P_________P___ EP081983 11.6500 -97.5500 TD 32 -1 11.6104 -97.5138 1 33 11 285
1983208N11265 1983 38 EP MM HENRIETTE 1983-07-27 18:00:00 TS 11.7837 -98.0838 35 hurdat_epa main 455 455 O_________P___ hurdat_epa EP081983 11.8000 -98.1000 TS 35 0 11.7346 -98.0351 1 37 11 284
1983208N11265 1983 38 EP MM HENRIETTE 1983-07-27 21:00:00 TS 11.8915 -98.5854 main 467 463 P_________P___ EP081983 11.8998 -98.5927 TS 40 0 11.8666 -98.5638 1 41 10 282
1983208N11265 1983 38 EP MM HENRIETTE 1983-07-28 00:00:00 TS 12.0000 -99.1000 45 hurdat_epa main 469 465 O_________O___ hurdat_epa EP081983 12.0000 -99.1000 TS 45 0 12.0000 -99.1000 2 45 11 284
1983208N11265 1983 38 EP MM HENRIETTE 1983-07-28 03:00:00 TS 12.1507 -99.6857 main 472 472 P_________P___ EP081983 12.1501 -99.6999 TS 47 0 12.1525 -99.6430 2 47 12 285
1983208N11265 1983 38 EP MM HENRIETTE 1983-07-28 06:00:00 TS 12.3002 -100.273 50 hurdat_epa main 483 482 O_________P___ hurdat_epa EP081983 12.3000 -100.300 TS 50 0 12.3009 -100.193 2 50 11 284
1983208N11265 1983 38 EP MM HENRIETTE 1983-07-28 09:00:00 TS 12.4227 -100.792 main 495 487 P_________P___ EP081983 12.4223 -100.808 TS 52 0 12.4238 -100.746 2 52 10 281
1983208N11265 1983 38 EP MM HENRIETTE 1983-07-28 12:00:00 TS 12.5000 -101.300 55 hurdat_epa main 500 500 O_________O___ hurdat_epa EP081983 12.5000 -101.300 TS 55 0 12.5000 -101.300 2 55 10 276
1983208N11265 1983 38 EP MM HENRIETTE 1983-07-28 15:00:00 TS 12.5218 -101.837 main 521 521 P_________P___ EP081983 12.5224 -101.835 TS 60 0 12.5202 -101.842 2 60 11 270
1983208N11265 1983 38 EP MM HENRIETTE 1983-07-28 18:00:00 TS 12.5000 -102.400 65 hurdat_epa main 552 552 O_________O___ hurdat_epa EP081983 12.5000 -102.400 HU 65 1 12.5000 -102.400 3 65 11 267
1983208N11265 1983 38 EP MM HENRIETTE 1983-07-28 21:00:00 TS 12.4575 -102.986 main 574 574 P_________P___ EP081983 12.4574 -102.985 HU 72 1 12.4580 -102.987 3 72 12 265
1983208N11265 1983 38 EP MM HENRIETTE 1983-07-29 00:00:00 TS 12.4000 -103.600 80 hurdat_epa main 610 610 O_________O___ hurdat_epa EP081983 12.4000 -103.600 HU 80 1 12.4000 -103.600 4 80 12 265
1983208N11265 1983 38 EP MM HENRIETTE 1983-07-29 03:00:00 TS 12.3507 -104.240 main 641 641 P_________P___ EP081983 12.3499 -104.242 HU 80 1 12.3533 -104.234 4 80 13 266
1983208N11265 1983 38 EP MM HENRIETTE 1983-07-29 06:00:00 TS 12.3017 -104.897 80 hurdat_epa main 683 683 O_________P___ hurdat_epa EP081983 12.3000 -104.900 HU 80 1 12.3066 -104.886 4 80 13 266
1983208N11265 1983 38 EP MM HENRIETTE 1983-07-29 09:00:00 TS 12.2571 -105.543 main 705 705 P_________P___ EP081983 12.2573 -105.542 HU 80 1 12.2566 -105.546 4 80 13 265
1983208N11265 1983 38 EP MM HENRIETTE 1983-07-29 12:00:00 TS 12.2000 -106.200 80 hurdat_epa main 741 741 O_________O___ hurdat_epa EP081983 12.2000 -106.200 HU 80 1 12.2000 -106.200 4 80 13 263
1983208N11265 1983 38 EP MM HENRIETTE 1983-07-29 15:00:00 TS 12.1048 -106.890 main 784 784 P_________P___ EP081983 12.1000 -106.915 HU 85 2 12.1192 -106.816 4 85 13 262
1983208N11265 1983 38 EP MM HENRIETTE 1983-07-29 18:00:00 TS 12.0085 -107.557 90 hurdat_epa main 831 831 O_________P___ hurdat_epa EP081983 12.0000 -107.600 HU 90 2 12.0339 -107.428 4 90 12 262
1983208N11265 1983 38 EP MM HENRIETTE 1983-07-29 21:00:00 TS 11.9401 -108.125 main 870 870 P_________P___ EP081983 11.9346 -108.150 HU 95 2 11.9567 -108.051 4 95 11 264
1983208N11265 1983 38 EP MM HENRIETTE 1983-07-30 00:00:00 TS 11.9000 -108.700 100 hurdat_epa main 908 908 O_________O___ hurdat_epa EP081983 11.9000 -108.700 HU 100 3 11.9000 -108.700 4 100 12 268
1983208N11265 1983 38 EP MM HENRIETTE 1983-07-30 03:00:00 TS 11.8879 -109.379 main 954 954 P_________P___ EP081983 11.8924 -109.370 HU 105 3 11.8743 -109.404 4 102 14 270
1983208N11265 1983 38 EP MM HENRIETTE 1983-07-30 06:00:00 TS 11.8925 -110.109 110 hurdat_epa main 994 994 O_________P___ hurdat_epa EP081983 11.9000 -110.100 HU 110 3 11.8699 -110.135 4 105 14 270
1983208N11265 1983 38 EP MM HENRIETTE 1983-07-30 09:00:00 TS 11.8894 -110.856 main 1046 1046 P_________P___ EP081983 11.8924 -110.850 HU 110 3 11.8805 -110.873 4 107 15 270
1983208N11265 1983 38 EP MM HENRIETTE 1983-07-30 12:00:00 TS 11.9000 -111.600 110 hurdat_epa main 1094 1094 O_________O___ hurdat_epa EP081983 11.9000 -111.600 HU 110 3 11.9000 -111.600 4 110 14 272
1983208N11265 1983 38 EP MM HENRIETTE 1983-07-30 15:00:00 TS 11.9427 -112.312 main 1145 1145 P_________P___ EP081983 11.9498 -112.315 HU 110 3 11.9214 -112.301 4 111 14 274
1983208N11265 1983 38 EP MM HENRIETTE 1983-07-30 18:00:00 TS 11.9874 -112.997 110 hurdat_epa main 1191 1191 O_________P___ hurdat_epa EP081983 12.0000 -113.000 HU 110 3 11.9494 -112.987 4 112 13 272
1983208N11265 1983 38 EP MM HENRIETTE 1983-07-30 21:00:00 TS 11.9999 -113.662 main 1244 1244 P_________P___ EP081983 12.0073 -113.665 HU 112 3 11.9777 -113.655 4 113 13 271
1983208N11265 1983 38 EP MM HENRIETTE 1983-07-31 00:00:00 TS 12.0000 -114.300 115 hurdat_epa main 1291 1291 O_________O___ hurdat_epa EP081983 12.0000 -114.300 HU 115 4 12.0000 -114.300 4 115 12 270
1983208N11265 1983 38 EP MM HENRIETTE 1983-07-31 03:00:00 TS 11.9964 -114.912 main 1325 1325 P_________P___ EP081983 11.9998 -114.908 HU 115 4 11.9863 -114.926 4 115 12 270
1983208N11265 1983 38 EP MM HENRIETTE 1983-07-31 06:00:00 TS 11.9923 -115.508 115 hurdat_epa main 1351 1351 O_________P___ hurdat_epa EP081983 12.0000 -115.500 HU 115 4 11.9693 -115.531 4 115 12 269
1983208N11265 1983 38 EP MM HENRIETTE 1983-07-31 09:00:00 TS 11.9806 -116.116 main 1380 1380 P_________P___ EP081983 11.9850 -116.115 HU 115 4 11.9676 -116.120 4 115 12 270
1983208N11265 1983 38 EP MM HENRIETTE 1983-07-31 12:00:00 TS 12.0000 -116.700 115 hurdat_epa main 1410 1410 O_________O___ hurdat_epa EP081983 12.0000 -116.700 HU 115 4 12.0000 -116.700 4 115 11 275
1983208N11265 1983 38 EP MM HENRIETTE 1983-07-31 15:00:00 TS 12.0750 -117.214 main 1428 1428 P_________P___ EP081983 12.0772 -117.193 HU 107 3 12.0683 -117.278 4 111 10 281
1983208N11265 1983 38 EP MM HENRIETTE 1983-07-31 18:00:00 TS 12.1936 -117.738 100 hurdat_epa main 1448 1448 O_________P___ hurdat_epa EP081983 12.2000 -117.700 HU 100 3 12.1743 -117.850 4 107 12 283
1983208N11265 1983 38 EP MM HENRIETTE 1983-07-31 21:00:00 TS 12.3309 -118.362 main 1482 1479 P_________P___ EP081983 12.3351 -118.343 HU 100 3 12.3183 -118.422 4 103 13 284
1983208N11265 1983 38 EP MM HENRIETTE 1983-08-01 00:00:00 TS 12.5000 -119.000 100 hurdat_epa main 1503 1503 O_________O___ hurdat_epa EP081983 12.5000 -119.000 HU 100 3 12.5000 -119.000 4 100 12 287
1983208N11265 1983 38 EP MM HENRIETTE 1983-08-01 03:00:00 TS 12.6853 -119.562 main 1527 1525 P_________P___ EP081983 12.6772 -119.550 HU 102 3 12.7097 -119.597 4 100 12 291
1983208N11265 1983 38 EP MM HENRIETTE 1983-08-01 06:00:00 TS 12.9137 -120.125 105 hurdat_epa main 1546 1545 O_________P___ hurdat_epa EP081983 12.9000 -120.100 HU 105 3 12.9547 -120.200 4 100 13 294
1983208N11265 1983 38 EP MM HENRIETTE 1983-08-01 09:00:00 TS 13.1943 -120.758 main 1573 1573 P_________P___ EP081983 13.1850 -120.742 HU 102 3 13.2222 -120.803 4 100 14 295
1983208N11265 1983 38 EP MM HENRIETTE 1983-08-01 12:00:00 TS 13.5000 -121.400 100 hurdat_epa main 1587 1584 O_________O___ hurdat_epa EP081983 13.5000 -121.400 HU 100 3 13.5000 -121.400 4 100 14 296
1983208N11265 1983 38 EP MM HENRIETTE 1983-08-01 15:00:00 TS 13.7963 -122.006 main 1600 1598 P_________P___ EP081983 13.8074 -122.015 HU 95 2 13.7632 -121.979 4 96 13 297
1983208N11265 1983 38 EP MM HENRIETTE 1983-08-01 18:00:00 TS 14.0836 -122.588 90 hurdat_epa main 1616 1615 O_________P___ hurdat_epa EP081983 14.1000 -122.600 HU 90 2 14.0343 -122.551 4 92 12 296
1983208N11265 1983 38 EP MM HENRIETTE 1983-08-01 21:00:00 TS 14.3407 -123.149 main 1636 1635 P_________P___ EP081983 14.3498 -123.158 HU 87 2 14.3132 -123.122 4 88 12 296
1983208N11265 1983 38 EP MM HENRIETTE 1983-08-02 00:00:00 TS 14.6000 -123.700 85 hurdat_epa main 1656 1656 O_________O___ hurdat_epa EP081983 14.6000 -123.700 HU 85 2 14.6000 -123.700 4 85 12 297
1983208N11265 1983 38 EP MM HENRIETTE 1983-08-02 03:00:00 TS 14.8943 -124.249 main 1671 1671 P_________P___ EP081983 14.8923 -124.235 HU 80 1 14.9005 -124.289 4 81 12 299
1983208N11265 1983 38 EP MM HENRIETTE 1983-08-02 06:00:00 TS 15.2017 -124.821 75 hurdat_epa main 1696 1696 O_________P___ hurdat_epa EP081983 15.2000 -124.800 HU 75 1 15.2069 -124.885 4 77 13 298
1983208N11265 1983 38 EP MM HENRIETTE 1983-08-02 09:00:00 TS 15.5080 -125.449 main 1724 1724 P_________P___ EP081983 15.5074 -125.435 HU 72 1 15.5098 -125.489 4 73 14 296
1983208N11265 1983 38 EP MM HENRIETTE 1983-08-02 12:00:00 TS 15.8000 -126.100 70 hurdat_epa main 1753 1751 O_________O___ hurdat_epa EP081983 15.8000 -126.100 HU 70 1 15.8000 -126.100 4 70 14 294
1983208N11265 1983 38 EP MM HENRIETTE 1983-08-02 15:00:00 TS 16.0570 -126.749 main 1769 1769 P_________P___ EP081983 16.0574 -126.758 HU 67 1 16.0559 -126.723 4 70 13 292
1983208N11265 1983 38 EP MM HENRIETTE 1983-08-02 18:00:00 TS 16.2999 -127.388 65 hurdat_epa main 1802 1801 O_________P___ hurdat_epa EP081983 16.3000 -127.400 HU 65 1 16.2995 -127.351 4 70 13 292
1983208N11265 1983 38 EP MM HENRIETTE 1983-08-02 21:00:00 TS 16.5425 -128.001 main 1830 1822 P_________P___ EP081983 16.5423 -128.008 HU 67 1 16.5434 -127.979 4 70 13 293
1983208N11265 1983 38 EP MM HENRIETTE 1983-08-03 00:00:00 TS 16.8000 -128.600 70 hurdat_epa main 1852 1852 O_________O___ hurdat_epa EP081983 16.8000 -128.600 HU 70 1 16.8000 -128.600 4 70 13 295
1983208N11265 1983 38 EP MM HENRIETTE 1983-08-03 03:00:00 TS 17.0915 -129.204 main 1876 1876 P_________P___ EP081983 17.0923 -129.200 HU 67 1 17.0892 -129.215 4 68 13 297
1983208N11265 1983 38 EP MM HENRIETTE 1983-08-03 06:00:00 TS 17.3980 -129.806 65 hurdat_epa main 1903 1903 O_________P___ hurdat_epa EP081983 17.4000 -129.800 HU 65 1 17.3919 -129.823 4 67 13 298
1983208N11265 1983 38 EP MM HENRIETTE 1983-08-03 09:00:00 TS 17.6996 -130.410 main 1931 1931 P_________P___ EP081983 17.6999 -130.408 HU 65 1 17.6986 -130.419 4 66 13 298
1983208N11265 1983 38 EP MM HENRIETTE 1983-08-03 12:00:00 TS 18.0000 -131.000 65 hurdat_epa main 1961 1961 O_________O___ hurdat_epa EP081983 18.0000 -131.000 HU 65 1 18.0000 -131.000 4 65 12 299
1983208N11265 1983 38 EP MM HENRIETTE 1983-08-03 15:00:00 TS 18.2968 -131.560 main 1993 1993 P_________P___ EP081983 18.3073 -131.558 HU 65 1 18.2653 -131.565 4 62 12 299
1983208N11265 1983 38 EP MM HENRIETTE 1983-08-03 18:00:00 TS 18.5817 -132.104 65 hurdat_epa main 2018 2018 O_________P___ hurdat_epa EP081983 18.6000 -132.100 HU 65 1 18.5266 -132.117 4 60 12 297
1983208N11265 1983 38 EP MM HENRIETTE 1983-08-03 21:00:00 TS 18.8317 -132.653 main 2059 2053 P_________P___ EP081983 18.8423 -132.650 HU 60 0 18.7997 -132.659 4 57 12 297
1983208N11265 1983 38 EP MM HENRIETTE 1983-08-04 00:00:00 TS 19.1000 -133.200 55 hurdat_epa main 2086 2086 O_________O___ hurdat_epa EP081983 19.1000 -133.200 TS 55 0 19.1000 -133.200 2 55 12 300
1983208N11265 1983 38 EP MM HENRIETTE 1983-08-04 03:00:00 TS 19.4351 -133.757 main 2124 2114 P_________P___ EP081983 19.4273 -133.750 TS 52 0 19.4585 -133.778 2 52 13 304
1983208N11265 1983 38 EP MM HENRIETTE 1983-08-04 06:00:00 TS 19.8107 -134.313 50 hurdat_epa main 2121 2091 O_________P___ hurdat_epa EP081983 19.8000 -134.300 TS 50 0 19.8427 -134.352 2 50 13 306
1983208N11265 1983 38 EP MM HENRIETTE 1983-08-04 09:00:00 TS 20.2076 -134.879 main 2081 2028 P_________P___ EP081983 20.2000 -134.872 TS 47 0 20.2305 -134.900 2 47 13 308
1983208N11265 1983 38 EP MM HENRIETTE 1983-08-04 12:00:00 TS 20.6000 -135.400 45 hurdat_epa main 2028 1987 O_________O___ hurdat_epa EP081983 20.6000 -135.400 TS 45 0 20.6000 -135.400 2 45 12 310
1983208N11265 1983 38 EP MM HENRIETTE 1983-08-04 15:00:00 TS 20.9544 -135.838 main 1987 1947 P_________P___ EP081983 20.9723 -135.830 TS 45 0 20.9008 -135.863 2 43 10 311
1983208N11265 1983 38 EP MM HENRIETTE 1983-08-04 18:00:00 TS 21.2711 -136.218 45 hurdat_epa main 1947 1907 O_________P___ hurdat_epa EP081983 21.3000 -136.200 TS 45 0 21.1845 -136.271 2 42 9 309
1983208N11265 1983 38 EP MM HENRIETTE 1983-08-04 21:00:00 TS 21.5202 -136.584 main 1907 1877 P_________P___ EP081983 21.5350 -136.573 TS 42 0 21.4760 -136.619 2 41 8 310
1983208N11265 1983 38 EP MM HENRIETTE 1983-08-05 00:00:00 TS 21.8000 -136.900 40 hurdat_epa main 1878 1852 O_________O___ hurdat_epa EP081983 21.8000 -136.900 TS 40 0 21.8000 -136.900 2 40 9 321
1983208N11265 1983 38 EP MM HENRIETTE 1983-08-05 03:00:00 TS 22.2117 -137.186 main 1852 1837 P_________P___ EP081983 22.2275 -137.195 TS 37 0 22.1643 -137.159 2 37 10 333
1983208N11265 1983 38 EP MM HENRIETTE 1983-08-05 06:00:00 TS 22.6668 -137.387 35 hurdat_epa main 1838 1831 O_________P___ hurdat_epa EP081983 22.7000 -137.400 TS 35 0 22.5671 -137.349 2 35 9 342
1983208N11265 1983 38 EP MM HENRIETTE 1983-08-05 09:00:00 TS 23.0721 -137.482 main 1835 1835 P_________P___ EP081983 23.0924 -137.488 TS 32 -1 23.0113 -137.465 2 32 8 353
1983208N11265 1983 38 EP MM HENRIETTE 1983-08-05 12:00:00 TS 23.5000 -137.500 30 hurdat_epa main 1843 1843 O_________O___ hurdat_epa EP081983 23.5000 -137.500 TD 30 -1 23.5000 -137.500 1 30 9 358
1983208N11265 1983 38 EP MM HENRIETTE 1983-08-05 15:00:00 TS 23.9817 -137.528 main 1854 1854 P_________P___ EP081983 23.9624 -137.545 TD 30 -1 24.0395 -137.478 1 30 10 2
1983208N11265 1983 38 EP MM HENRIETTE 1983-08-05 18:00:00 TS 24.5298 -137.469 30 hurdat_epa main 1866 1866 O_________P___ hurdat_epa EP081983 24.5000 -137.500 TD 30 -1 24.6192 -137.377 1 30 12 11
1983208N11265 1983 38 EP MM HENRIETTE 1983-08-05 21:00:00 TS 25.1605 -137.269 main 1906 1849 P_________P___ EP081983 25.1426 -137.288 TD 30 -1 25.2142 -137.212 1 30 13 18
1983208N11265 1983 38 EP MM HENRIETTE 1983-08-06 00:00:00 TS 25.8000 -137.000 30 hurdat_epa main 1849 1796 O_________O___ hurdat_epa EP081983 25.8000 -137.000 TD 30 -1 25.8000 -137.000 1 30 13 21
1983208N11265 1983 38 EP MM HENRIETTE 1983-08-06 03:00:00 TS 26.3728 -136.743 main 1781 1730 P_________P___ EP081983 26.3775 -136.738 TD 27 -1 26.3586 -136.758 1 27 12 22
1983208N11265 1983 38 EP MM HENRIETTE 1983-08-06 06:00:00 TS 26.9000 -136.500 25 hurdat_epa main 1730 O_________O___ hurdat_epa EP081983 26.9000 -136.500 TD 25 -1 26.9000 -136.500 1 25 11 22

IBTrACS Databaseについて

本データベースは、米国NOAAが公開する1842年以降の世界の熱帯低気圧のベストトラックデータアーカイブInternational Best Track Archive for Climate Stewardship (IBTrACS)を、ウェブで閲覧しやすい形式に変換したものです。

最終更新日:2021-12-03